sensor_id;sensor_type;location;lat;lon;timestamp;P1;durP1;ratioP1;P2;durP2;ratioP2
40815;SDS011;26535;48.788;9.214;2023-12-14T00:00:27;2.40;;;1.10;;
40815;SDS011;26535;48.788;9.214;2023-12-14T00:02:53;2.30;;;1.05;;
40815;SDS011;26535;48.788;9.214;2023-12-14T00:05:18;3.97;;;1.10;;
40815;SDS011;26535;48.788;9.214;2023-12-14T00:07:44;2.78;;;1.40;;
40815;SDS011;26535;48.788;9.214;2023-12-14T00:10:10;3.15;;;1.50;;
40815;SDS011;26535;48.788;9.214;2023-12-14T00:12:37;3.75;;;1.52;;
40815;SDS011;26535;48.788;9.214;2023-12-14T00:15:03;2.83;;;1.52;;
40815;SDS011;26535;48.788;9.214;2023-12-14T00:17:29;3.40;;;1.40;;
40815;SDS011;26535;48.788;9.214;2023-12-14T00:19:55;3.53;;;1.70;;
40815;SDS011;26535;48.788;9.214;2023-12-14T00:22:20;5.03;;;1.30;;
40815;SDS011;26535;48.788;9.214;2023-12-14T00:24:46;5.90;;;1.48;;
40815;SDS011;26535;48.788;9.214;2023-12-14T00:27:12;2.75;;;1.20;;
40815;SDS011;26535;48.788;9.214;2023-12-14T00:29:38;3.33;;;1.52;;
40815;SDS011;26535;48.788;9.214;2023-12-14T00:32:03;4.97;;;1.63;;
40815;SDS011;26535;48.788;9.214;2023-12-14T00:34:30;2.42;;;1.50;;
40815;SDS011;26535;48.788;9.214;2023-12-14T00:36:55;4.28;;;1.90;;
40815;SDS011;26535;48.788;9.214;2023-12-14T00:39:21;4.00;;;1.80;;
40815;SDS011;26535;48.788;9.214;2023-12-14T00:41:47;3.75;;;1.73;;
40815;SDS011;26535;48.788;9.214;2023-12-14T00:44:12;3.03;;;1.50;;
40815;SDS011;26535;48.788;9.214;2023-12-14T00:46:38;3.35;;;1.50;;
40815;SDS011;26535;48.788;9.214;2023-12-14T00:49:03;3.58;;;1.75;;
40815;SDS011;26535;48.788;9.214;2023-12-14T00:51:29;3.35;;;1.40;;
40815;SDS011;26535;48.788;9.214;2023-12-14T00:53:55;3.65;;;1.52;;
40815;SDS011;26535;48.788;9.214;2023-12-14T00:56:20;4.15;;;1.70;;
40815;SDS011;26535;48.788;9.214;2023-12-14T00:58:46;3.25;;;1.98;;
40815;SDS011;26535;48.788;9.214;2023-12-14T01:01:12;2.70;;;1.45;;
40815;SDS011;26535;48.788;9.214;2023-12-14T01:03:37;2.90;;;1.65;;
40815;SDS011;26535;48.788;9.214;2023-12-14T01:06:03;3.58;;;1.58;;
40815;SDS011;26535;48.788;9.214;2023-12-14T01:08:29;3.45;;;1.70;;
40815;SDS011;26535;48.788;9.214;2023-12-14T01:10:55;3.22;;;1.40;;
40815;SDS011;26535;48.788;9.214;2023-12-14T01:13:20;4.43;;;1.50;;
40815;SDS011;26535;48.788;9.214;2023-12-14T01:15:46;2.95;;;1.77;;
40815;SDS011;26535;48.788;9.214;2023-12-14T01:18:12;4.15;;;1.90;;
40815;SDS011;26535;48.788;9.214;2023-12-14T01:20:38;3.85;;;1.67;;
40815;SDS011;26535;48.788;9.214;2023-12-14T01:23:03;3.17;;;1.80;;
40815;SDS011;26535;48.788;9.214;2023-12-14T01:25:29;3.10;;;1.70;;
40815;SDS011;26535;48.788;9.214;2023-12-14T01:27:55;3.95;;;1.83;;
40815;SDS011;26535;48.788;9.214;2023-12-14T01:30:20;5.10;;;1.83;;
40815;SDS011;26535;48.788;9.214;2023-12-14T01:32:46;3.72;;;1.88;;
40815;SDS011;26535;48.788;9.214;2023-12-14T01:35:12;2.95;;;1.80;;
40815;SDS011;26535;48.788;9.214;2023-12-14T01:37:37;4.15;;;1.90;;
40815;SDS011;26535;48.788;9.214;2023-12-14T01:40:03;4.22;;;1.88;;
40815;SDS011;26535;48.788;9.214;2023-12-14T01:42:30;4.30;;;2.08;;
40815;SDS011;26535;48.788;9.214;2023-12-14T01:44:55;3.25;;;1.63;;
40815;SDS011;26535;48.788;9.214;2023-12-14T01:47:21;5.40;;;2.35;;
40815;SDS011;26535;48.788;9.214;2023-12-14T01:49:47;4.55;;;1.77;;
40815;SDS011;26535;48.788;9.214;2023-12-14T01:52:12;3.20;;;1.80;;
40815;SDS011;26535;48.788;9.214;2023-12-14T01:54:38;3.90;;;1.75;;
40815;SDS011;26535;48.788;9.214;2023-12-14T01:57:04;5.78;;;2.08;;
40815;SDS011;26535;48.788;9.214;2023-12-14T01:59:29;2.90;;;1.90;;
40815;SDS011;26535;48.788;9.214;2023-12-14T02:01:56;2.92;;;1.70;;
40815;SDS011;26535;48.788;9.214;2023-12-14T02:04:23;3.55;;;2.00;;
40815;SDS011;26535;48.788;9.214;2023-12-14T02:06:52;4.03;;;1.80;;
40815;SDS011;26535;48.788;9.214;2023-12-14T02:09:18;5.38;;;2.20;;
40815;SDS011;26535;48.788;9.214;2023-12-14T02:11:43;3.85;;;2.03;;
40815;SDS011;26535;48.788;9.214;2023-12-14T02:14:09;4.43;;;2.40;;
40815;SDS011;26535;48.788;9.214;2023-12-14T02:16:35;4.88;;;2.63;;
40815;SDS011;26535;48.788;9.214;2023-12-14T02:19:03;3.63;;;2.17;;
40815;SDS011;26535;48.788;9.214;2023-12-14T02:21:29;4.50;;;2.00;;
40815;SDS011;26535;48.788;9.214;2023-12-14T02:23:55;3.30;;;1.98;;
40815;SDS011;26535;48.788;9.214;2023-12-14T02:26:21;3.95;;;1.90;;
40815;SDS011;26535;48.788;9.214;2023-12-14T02:28:46;5.07;;;1.80;;
40815;SDS011;26535;48.788;9.214;2023-12-14T02:31:12;4.03;;;1.85;;
40815;SDS011;26535;48.788;9.214;2023-12-14T02:33:38;4.07;;;1.88;;
40815;SDS011;26535;48.788;9.214;2023-12-14T02:36:04;4.13;;;1.95;;
40815;SDS011;26535;48.788;9.214;2023-12-14T02:38:30;3.25;;;1.40;;
40815;SDS011;26535;48.788;9.214;2023-12-14T02:40:55;3.35;;;1.77;;
40815;SDS011;26535;48.788;9.214;2023-12-14T02:43:21;3.25;;;1.90;;
40815;SDS011;26535;48.788;9.214;2023-12-14T02:45:48;5.10;;;2.35;;
40815;SDS011;26535;48.788;9.214;2023-12-14T02:48:14;3.28;;;1.80;;
40815;SDS011;26535;48.788;9.214;2023-12-14T02:50:40;3.53;;;1.92;;
40815;SDS011;26535;48.788;9.214;2023-12-14T02:53:06;5.18;;;2.50;;
40815;SDS011;26535;48.788;9.214;2023-12-14T02:55:32;4.90;;;2.20;;
40815;SDS011;26535;48.788;9.214;2023-12-14T02:57:57;3.65;;;1.40;;
40815;SDS011;26535;48.788;9.214;2023-12-14T03:00:23;2.78;;;0.93;;
40815;SDS011;26535;48.788;9.214;2023-12-14T03:02:49;2.67;;;1.30;;
40815;SDS011;26535;48.788;9.214;2023-12-14T03:05:15;2.63;;;0.93;;
40815;SDS011;26535;48.788;9.214;2023-12-14T03:07:40;2.17;;;0.70;;
40815;SDS011;26535;48.788;9.214;2023-12-14T03:10:06;1.58;;;0.70;;
40815;SDS011;26535;48.788;9.214;2023-12-14T03:12:32;1.83;;;0.70;;
40815;SDS011;26535;48.788;9.214;2023-12-14T03:14:58;1.90;;;0.75;;
40815;SDS011;26535;48.788;9.214;2023-12-14T03:17:27;2.58;;;1.10;;
40815;SDS011;26535;48.788;9.214;2023-12-14T03:19:52;2.25;;;1.20;;
40815;SDS011;26535;48.788;9.214;2023-12-14T03:22:18;2.22;;;1.00;;
40815;SDS011;26535;48.788;9.214;2023-12-14T03:24:44;3.22;;;1.13;;
40815;SDS011;26535;48.788;9.214;2023-12-14T03:27:09;2.35;;;1.10;;
40815;SDS011;26535;48.788;9.214;2023-12-14T03:29:35;2.63;;;1.15;;
40815;SDS011;26535;48.788;9.214;2023-12-14T03:32:01;3.25;;;1.20;;
40815;SDS011;26535;48.788;9.214;2023-12-14T03:34:26;2.85;;;1.25;;
40815;SDS011;26535;48.788;9.214;2023-12-14T03:36:52;3.30;;;0.88;;
40815;SDS011;26535;48.788;9.214;2023-12-14T03:39:18;2.72;;;0.80;;
40815;SDS011;26535;48.788;9.214;2023-12-14T03:41:44;2.25;;;0.93;;
40815;SDS011;26535;48.788;9.214;2023-12-14T03:44:10;2.00;;;0.77;;
40815;SDS011;26535;48.788;9.214;2023-12-14T03:46:36;1.90;;;0.85;;
40815;SDS011;26535;48.788;9.214;2023-12-14T03:49:02;1.80;;;0.70;;
40815;SDS011;26535;48.788;9.214;2023-12-14T03:51:28;2.25;;;0.90;;
40815;SDS011;26535;48.788;9.214;2023-12-14T03:53:57;3.33;;;1.00;;
40815;SDS011;26535;48.788;9.214;2023-12-14T03:56:23;4.63;;;1.00;;
40815;SDS011;26535;48.788;9.214;2023-12-14T03:58:49;2.28;;;0.70;;
40815;SDS011;26535;48.788;9.214;2023-12-14T04:01:15;1.95;;;0.70;;
40815;SDS011;26535;48.788;9.214;2023-12-14T04:03:45;2.88;;;1.20;;
40815;SDS011;26535;48.788;9.214;2023-12-14T04:06:12;3.63;;;0.98;;
40815;SDS011;26535;48.788;9.214;2023-12-14T04:08:38;2.38;;;0.80;;
40815;SDS011;26535;48.788;9.214;2023-12-14T04:11:05;2.50;;;0.70;;
40815;SDS011;26535;48.788;9.214;2023-12-14T04:13:30;2.58;;;1.00;;
40815;SDS011;26535;48.788;9.214;2023-12-14T04:15:56;2.03;;;1.00;;
40815;SDS011;26535;48.788;9.214;2023-12-14T04:18:22;2.83;;;1.40;;
40815;SDS011;26535;48.788;9.214;2023-12-14T04:20:48;2.50;;;1.27;;
40815;SDS011;26535;48.788;9.214;2023-12-14T04:23:14;3.25;;;1.33;;
40815;SDS011;26535;48.788;9.214;2023-12-14T04:25:39;2.50;;;1.38;;
40815;SDS011;26535;48.788;9.214;2023-12-14T04:28:05;2.92;;;1.02;;
40815;SDS011;26535;48.788;9.214;2023-12-14T04:30:31;3.90;;;0.90;;
40815;SDS011;26535;48.788;9.214;2023-12-14T04:32:56;2.28;;;0.85;;
40815;SDS011;26535;48.788;9.214;2023-12-14T04:35:22;2.70;;;0.77;;
40815;SDS011;26535;48.788;9.214;2023-12-14T04:37:48;2.03;;;0.70;;
40815;SDS011;26535;48.788;9.214;2023-12-14T04:40:14;3.00;;;1.20;;
40815;SDS011;26535;48.788;9.214;2023-12-14T04:42:39;3.65;;;1.05;;
40815;SDS011;26535;48.788;9.214;2023-12-14T04:45:05;2.92;;;1.10;;
40815;SDS011;26535;48.788;9.214;2023-12-14T04:47:31;2.63;;;1.08;;
40815;SDS011;26535;48.788;9.214;2023-12-14T04:49:57;2.17;;;0.90;;
40815;SDS011;26535;48.788;9.214;2023-12-14T04:52:23;2.05;;;1.13;;
40815;SDS011;26535;48.788;9.214;2023-12-14T04:54:49;2.95;;;1.25;;
40815;SDS011;26535;48.788;9.214;2023-12-14T04:57:14;4.30;;;1.50;;
40815;SDS011;26535;48.788;9.214;2023-12-14T04:59:43;3.20;;;1.20;;
40815;SDS011;26535;48.788;9.214;2023-12-14T05:02:08;3.33;;;1.30;;
40815;SDS011;26535;48.788;9.214;2023-12-14T05:04:34;3.20;;;1.38;;
40815;SDS011;26535;48.788;9.214;2023-12-14T05:07:00;3.90;;;1.02;;
40815;SDS011;26535;48.788;9.214;2023-12-14T05:09:26;2.80;;;1.30;;
40815;SDS011;26535;48.788;9.214;2023-12-14T05:11:51;4.28;;;1.70;;
40815;SDS011;26535;48.788;9.214;2023-12-14T05:14:18;3.60;;;1.60;;
40815;SDS011;26535;48.788;9.214;2023-12-14T05:16:43;3.20;;;1.73;;
40815;SDS011;26535;48.788;9.214;2023-12-14T05:19:09;4.00;;;2.30;;
40815;SDS011;26535;48.788;9.214;2023-12-14T05:21:35;5.95;;;2.42;;
40815;SDS011;26535;48.788;9.214;2023-12-14T05:24:01;5.50;;;2.80;;
40815;SDS011;26535;48.788;9.214;2023-12-14T05:26:27;4.60;;;2.15;;
40815;SDS011;26535;48.788;9.214;2023-12-14T05:28:53;5.40;;;2.88;;
40815;SDS011;26535;48.788;9.214;2023-12-14T05:31:19;6.03;;;2.83;;
40815;SDS011;26535;48.788;9.214;2023-12-14T05:33:47;5.80;;;2.65;;
40815;SDS011;26535;48.788;9.214;2023-12-14T05:36:13;4.57;;;2.30;;
40815;SDS011;26535;48.788;9.214;2023-12-14T05:38:39;6.10;;;2.80;;
40815;SDS011;26535;48.788;9.214;2023-12-14T05:41:05;6.57;;;2.65;;
40815;SDS011;26535;48.788;9.214;2023-12-14T05:43:31;4.55;;;2.42;;
40815;SDS011;26535;48.788;9.214;2023-12-14T05:45:57;5.43;;;3.25;;
40815;SDS011;26535;48.788;9.214;2023-12-14T05:48:23;5.00;;;2.72;;
40815;SDS011;26535;48.788;9.214;2023-12-14T05:50:49;5.50;;;2.90;;
40815;SDS011;26535;48.788;9.214;2023-12-14T05:53:16;5.88;;;2.97;;
40815;SDS011;26535;48.788;9.214;2023-12-14T05:55:42;5.10;;;2.97;;
40815;SDS011;26535;48.788;9.214;2023-12-14T05:58:07;7.03;;;3.40;;
40815;SDS011;26535;48.788;9.214;2023-12-14T06:00:33;6.50;;;3.72;;
40815;SDS011;26535;48.788;9.214;2023-12-14T06:03:00;4.53;;;2.83;;
40815;SDS011;26535;48.788;9.214;2023-12-14T06:05:27;7.40;;;2.88;;
40815;SDS011;26535;48.788;9.214;2023-12-14T06:07:52;5.07;;;2.63;;
40815;SDS011;26535;48.788;9.214;2023-12-14T06:10:30;4.82;;;2.42;;
40815;SDS011;26535;48.788;9.214;2023-12-14T06:13:02;4.05;;;2.20;;
40815;SDS011;26535;48.788;9.214;2023-12-14T06:17:56;5.18;;;2.75;;
40815;SDS011;26535;48.788;9.214;2023-12-14T06:20:21;4.03;;;2.25;;
40815;SDS011;26535;48.788;9.214;2023-12-14T06:22:48;6.07;;;3.45;;
40815;SDS011;26535;48.788;9.214;2023-12-14T06:25:13;7.28;;;3.03;;
40815;SDS011;26535;48.788;9.214;2023-12-14T06:27:39;7.43;;;3.70;;
40815;SDS011;26535;48.788;9.214;2023-12-14T06:30:06;5.65;;;3.35;;
40815;SDS011;26535;48.788;9.214;2023-12-14T06:32:34;5.75;;;2.88;;
40815;SDS011;26535;48.788;9.214;2023-12-14T06:35:00;7.22;;;3.53;;
40815;SDS011;26535;48.788;9.214;2023-12-14T06:37:29;6.03;;;3.45;;
40815;SDS011;26535;48.788;9.214;2023-12-14T06:39:58;6.72;;;3.30;;
40815;SDS011;26535;48.788;9.214;2023-12-14T06:42:27;5.75;;;3.10;;
40815;SDS011;26535;48.788;9.214;2023-12-14T06:44:53;5.80;;;2.83;;
40815;SDS011;26535;48.788;9.214;2023-12-14T06:47:18;5.97;;;3.03;;
40815;SDS011;26535;48.788;9.214;2023-12-14T06:49:44;6.93;;;3.00;;
40815;SDS011;26535;48.788;9.214;2023-12-14T06:52:10;6.68;;;3.00;;
40815;SDS011;26535;48.788;9.214;2023-12-14T06:54:36;5.72;;;3.00;;
40815;SDS011;26535;48.788;9.214;2023-12-14T06:57:01;6.82;;;3.47;;
40815;SDS011;26535;48.788;9.214;2023-12-14T06:59:27;4.65;;;3.03;;
40815;SDS011;26535;48.788;9.214;2023-12-14T07:01:53;4.55;;;3.08;;
40815;SDS011;26535;48.788;9.214;2023-12-14T07:04:19;6.70;;;3.42;;
40815;SDS011;26535;48.788;9.214;2023-12-14T07:06:51;10.98;;;3.97;;
40815;SDS011;26535;48.788;9.214;2023-12-14T07:09:18;8.02;;;3.30;;
40815;SDS011;26535;48.788;9.214;2023-12-14T07:11:44;5.30;;;3.25;;
40815;SDS011;26535;48.788;9.214;2023-12-14T07:14:15;5.75;;;2.97;;
40815;SDS011;26535;48.788;9.214;2023-12-14T07:16:41;6.35;;;3.70;;
40815;SDS011;26535;48.788;9.214;2023-12-14T07:19:10;48.85;;;6.40;;
40815;SDS011;26535;48.788;9.214;2023-12-14T07:21:39;17.33;;;4.15;;
40815;SDS011;26535;48.788;9.214;2023-12-14T07:24:05;10.18;;;3.45;;
40815;SDS011;26535;48.788;9.214;2023-12-14T07:26:31;5.47;;;3.05;;
40815;SDS011;26535;48.788;9.214;2023-12-14T07:29:00;4.68;;;2.85;;
40815;SDS011;26535;48.788;9.214;2023-12-14T07:31:26;7.57;;;3.53;;
40815;SDS011;26535;48.788;9.214;2023-12-14T07:33:55;8.40;;;3.63;;
40815;SDS011;26535;48.788;9.214;2023-12-14T07:36:21;7.38;;;3.40;;
40815;SDS011;26535;48.788;9.214;2023-12-14T07:38:48;5.15;;;3.40;;
40815;SDS011;26535;48.788;9.214;2023-12-14T07:41:14;6.82;;;3.60;;
40815;SDS011;26535;48.788;9.214;2023-12-14T07:43:40;9.68;;;4.82;;
40815;SDS011;26535;48.788;9.214;2023-12-14T07:46:06;10.52;;;5.53;;
40815;SDS011;26535;48.788;9.214;2023-12-14T07:48:32;8.50;;;4.20;;
40815;SDS011;26535;48.788;9.214;2023-12-14T07:50:57;8.80;;;4.30;;
40815;SDS011;26535;48.788;9.214;2023-12-14T07:53:23;6.13;;;3.70;;
40815;SDS011;26535;48.788;9.214;2023-12-14T07:55:49;6.28;;;3.58;;
40815;SDS011;26535;48.788;9.214;2023-12-14T07:58:15;7.20;;;3.60;;
40815;SDS011;26535;48.788;9.214;2023-12-14T08:00:41;6.47;;;3.45;;
40815;SDS011;26535;48.788;9.214;2023-12-14T08:03:06;8.65;;;3.92;;
40815;SDS011;26535;48.788;9.214;2023-12-14T08:05:32;6.63;;;3.80;;
40815;SDS011;26535;48.788;9.214;2023-12-14T08:07:58;10.27;;;4.13;;
40815;SDS011;26535;48.788;9.214;2023-12-14T08:10:23;6.28;;;3.22;;
40815;SDS011;26535;48.788;9.214;2023-12-14T08:12:52;7.25;;;3.90;;
40815;SDS011;26535;48.788;9.214;2023-12-14T08:15:20;6.43;;;4.05;;
40815;SDS011;26535;48.788;9.214;2023-12-14T08:17:46;5.18;;;3.10;;
40815;SDS011;26535;48.788;9.214;2023-12-14T08:20:11;5.78;;;3.00;;
40815;SDS011;26535;48.788;9.214;2023-12-14T08:22:38;4.65;;;3.10;;
40815;SDS011;26535;48.788;9.214;2023-12-14T08:25:10;5.22;;;3.20;;
40815;SDS011;26535;48.788;9.214;2023-12-14T08:27:38;5.53;;;2.90;;
40815;SDS011;26535;48.788;9.214;2023-12-14T08:30:04;7.63;;;3.20;;
40815;SDS011;26535;48.788;9.214;2023-12-14T08:32:30;4.95;;;3.10;;
40815;SDS011;26535;48.788;9.214;2023-12-14T08:34:56;6.95;;;3.10;;
40815;SDS011;26535;48.788;9.214;2023-12-14T08:37:22;4.63;;;2.97;;
40815;SDS011;26535;48.788;9.214;2023-12-14T08:39:47;6.00;;;3.10;;
40815;SDS011;26535;48.788;9.214;2023-12-14T08:42:13;6.93;;;3.63;;
40815;SDS011;26535;48.788;9.214;2023-12-14T08:44:39;5.85;;;3.90;;
40815;SDS011;26535;48.788;9.214;2023-12-14T08:47:05;6.90;;;3.72;;
40815;SDS011;26535;48.788;9.214;2023-12-14T08:49:31;5.72;;;4.22;;
40815;SDS011;26535;48.788;9.214;2023-12-14T08:51:57;6.43;;;4.10;;
40815;SDS011;26535;48.788;9.214;2023-12-14T08:54:23;7.72;;;4.22;;
40815;SDS011;26535;48.788;9.214;2023-12-14T08:56:49;6.60;;;3.72;;
40815;SDS011;26535;48.788;9.214;2023-12-14T08:59:15;6.05;;;3.97;;
40815;SDS011;26535;48.788;9.214;2023-12-14T09:01:41;10.20;;;5.80;;
40815;SDS011;26535;48.788;9.214;2023-12-14T09:04:06;11.98;;;6.15;;
40815;SDS011;26535;48.788;9.214;2023-12-14T09:06:32;9.68;;;5.97;;
40815;SDS011;26535;48.788;9.214;2023-12-14T09:08:58;10.45;;;5.70;;
40815;SDS011;26535;48.788;9.214;2023-12-14T09:11:23;8.55;;;5.65;;
40815;SDS011;26535;48.788;9.214;2023-12-14T09:13:49;8.32;;;5.60;;
40815;SDS011;26535;48.788;9.214;2023-12-14T09:16:15;8.15;;;5.53;;
40815;SDS011;26535;48.788;9.214;2023-12-14T09:18:42;7.88;;;5.20;;
40815;SDS011;26535;48.788;9.214;2023-12-14T09:21:08;6.70;;;4.57;;
40815;SDS011;26535;48.788;9.214;2023-12-14T09:23:33;6.13;;;4.18;;
40815;SDS011;26535;48.788;9.214;2023-12-14T09:25:59;9.63;;;5.35;;
40815;SDS011;26535;48.788;9.214;2023-12-14T09:28:25;7.95;;;5.20;;
40815;SDS011;26535;48.788;9.214;2023-12-14T09:30:51;7.32;;;4.70;;
40815;SDS011;26535;48.788;9.214;2023-12-14T09:33:17;7.70;;;4.82;;
40815;SDS011;26535;48.788;9.214;2023-12-14T09:35:43;6.95;;;4.63;;
40815;SDS011;26535;48.788;9.214;2023-12-14T09:38:09;6.70;;;4.25;;
40815;SDS011;26535;48.788;9.214;2023-12-14T09:40:36;8.85;;;4.75;;
40815;SDS011;26535;48.788;9.214;2023-12-14T09:43:01;9.40;;;5.90;;
40815;SDS011;26535;48.788;9.214;2023-12-14T09:45:28;7.00;;;5.18;;
40815;SDS011;26535;48.788;9.214;2023-12-14T09:47:58;9.70;;;4.80;;
40815;SDS011;26535;48.788;9.214;2023-12-14T09:50:25;7.20;;;4.88;;
40815;SDS011;26535;48.788;9.214;2023-12-14T09:52:51;7.55;;;4.88;;
40815;SDS011;26535;48.788;9.214;2023-12-14T09:55:17;7.00;;;5.15;;
40815;SDS011;26535;48.788;9.214;2023-12-14T09:57:43;8.65;;;5.20;;
40815;SDS011;26535;48.788;9.214;2023-12-14T10:00:08;8.68;;;5.65;;
40815;SDS011;26535;48.788;9.214;2023-12-14T10:02:39;9.35;;;5.70;;
40815;SDS011;26535;48.788;9.214;2023-12-14T10:05:08;9.52;;;5.88;;
40815;SDS011;26535;48.788;9.214;2023-12-14T10:07:40;11.25;;;5.80;;
40815;SDS011;26535;48.788;9.214;2023-12-14T10:10:12;8.27;;;6.07;;
40815;SDS011;26535;48.788;9.214;2023-12-14T10:12:52;9.23;;;5.95;;
40815;SDS011;26535;48.788;9.214;2023-12-14T10:15:19;7.95;;;4.55;;
40815;SDS011;26535;48.788;9.214;2023-12-14T10:17:45;8.80;;;5.43;;
40815;SDS011;26535;48.788;9.214;2023-12-14T10:20:21;10.32;;;5.28;;
40815;SDS011;26535;48.788;9.214;2023-12-14T10:22:47;7.75;;;5.20;;
40815;SDS011;26535;48.788;9.214;2023-12-14T10:25:14;7.07;;;4.40;;
40815;SDS011;26535;48.788;9.214;2023-12-14T10:27:40;9.32;;;5.70;;
40815;SDS011;26535;48.788;9.214;2023-12-14T10:30:09;9.82;;;5.25;;
40815;SDS011;26535;48.788;9.214;2023-12-14T10:32:37;8.73;;;4.95;;
40815;SDS011;26535;48.788;9.214;2023-12-14T10:35:04;8.77;;;5.40;;
40815;SDS011;26535;48.788;9.214;2023-12-14T10:37:31;9.80;;;5.13;;
40815;SDS011;26535;48.788;9.214;2023-12-14T10:40:02;7.78;;;5.10;;
40815;SDS011;26535;48.788;9.214;2023-12-14T10:42:30;8.32;;;4.60;;
40815;SDS011;26535;48.788;9.214;2023-12-14T10:44:59;8.70;;;4.40;;
40815;SDS011;26535;48.788;9.214;2023-12-14T10:47:28;8.32;;;4.72;;
40815;SDS011;26535;48.788;9.214;2023-12-14T10:49:54;7.32;;;4.47;;
40815;SDS011;26535;48.788;9.214;2023-12-14T10:52:24;7.38;;;4.40;;
40815;SDS011;26535;48.788;9.214;2023-12-14T10:54:52;8.00;;;4.75;;
40815;SDS011;26535;48.788;9.214;2023-12-14T10:57:29;8.55;;;5.35;;
40815;SDS011;26535;48.788;9.214;2023-12-14T11:00:02;9.88;;;5.93;;
40815;SDS011;26535;48.788;9.214;2023-12-14T11:02:30;9.60;;;5.57;;
40815;SDS011;26535;48.788;9.214;2023-12-14T11:05:05;7.82;;;5.13;;
40815;SDS011;26535;48.788;9.214;2023-12-14T11:10:40;8.68;;;4.50;;
40815;SDS011;26535;48.788;9.214;2023-12-14T11:13:20;8.68;;;4.45;;
40815;SDS011;26535;48.788;9.214;2023-12-14T11:15:52;7.07;;;4.70;;
40815;SDS011;26535;48.788;9.214;2023-12-14T11:23:26;7.85;;;4.40;;
40815;SDS011;26535;48.788;9.214;2023-12-14T11:26:05;11.57;;;4.28;;
40815;SDS011;26535;48.788;9.214;2023-12-14T11:28:35;9.55;;;5.38;;
40815;SDS011;26535;48.788;9.214;2023-12-14T11:31:03;9.52;;;4.50;;
40815;SDS011;26535;48.788;9.214;2023-12-14T11:33:33;10.60;;;4.82;;
40815;SDS011;26535;48.788;9.214;2023-12-14T11:36:00;7.53;;;4.10;;
40815;SDS011;26535;48.788;9.214;2023-12-14T11:41:00;8.00;;;4.18;;
40815;SDS011;26535;48.788;9.214;2023-12-14T11:43:25;8.40;;;4.28;;
40815;SDS011;26535;48.788;9.214;2023-12-14T11:45:52;6.03;;;3.55;;
40815;SDS011;26535;48.788;9.214;2023-12-14T11:48:19;6.72;;;3.75;;
40815;SDS011;26535;48.788;9.214;2023-12-14T11:50:45;9.05;;;3.80;;
40815;SDS011;26535;48.788;9.214;2023-12-14T11:53:12;7.35;;;3.78;;
40815;SDS011;26535;48.788;9.214;2023-12-14T11:55:42;6.20;;;3.72;;
40815;SDS011;26535;48.788;9.214;2023-12-14T11:58:08;7.63;;;3.50;;
40815;SDS011;26535;48.788;9.214;2023-12-14T12:00:36;8.30;;;3.95;;
40815;SDS011;26535;48.788;9.214;2023-12-14T12:03:18;8.20;;;3.65;;
40815;SDS011;26535;48.788;9.214;2023-12-14T12:05:49;6.63;;;3.30;;
40815;SDS011;26535;48.788;9.214;2023-12-14T12:08:41;6.90;;;3.35;;
40815;SDS011;26535;48.788;9.214;2023-12-14T12:11:09;6.32;;;3.50;;
40815;SDS011;26535;48.788;9.214;2023-12-14T12:13:37;6.32;;;3.03;;
40815;SDS011;26535;48.788;9.214;2023-12-14T12:19:07;4.35;;;1.80;;
40815;SDS011;26535;48.788;9.214;2023-12-14T12:21:40;3.70;;;1.67;;
40815;SDS011;26535;48.788;9.214;2023-12-14T12:24:05;3.13;;;1.50;;
40815;SDS011;26535;48.788;9.214;2023-12-14T12:26:34;5.72;;;1.85;;
40815;SDS011;26535;48.788;9.214;2023-12-14T12:29:02;3.22;;;1.60;;
40815;SDS011;26535;48.788;9.214;2023-12-14T12:31:32;2.95;;;1.40;;
40815;SDS011;26535;48.788;9.214;2023-12-14T12:33:59;4.32;;;1.63;;
40815;SDS011;26535;48.788;9.214;2023-12-14T12:36:25;3.83;;;1.50;;
40815;SDS011;26535;48.788;9.214;2023-12-14T12:38:51;2.78;;;1.52;;
40815;SDS011;26535;48.788;9.214;2023-12-14T12:41:16;3.30;;;1.40;;
40815;SDS011;26535;48.788;9.214;2023-12-14T12:43:43;3.50;;;1.63;;
40815;SDS011;26535;48.788;9.214;2023-12-14T12:46:09;3.40;;;1.73;;
40815;SDS011;26535;48.788;9.214;2023-12-14T12:48:38;5.57;;;1.80;;
40815;SDS011;26535;48.788;9.214;2023-12-14T12:51:06;4.38;;;1.60;;
40815;SDS011;26535;48.788;9.214;2023-12-14T12:53:40;3.25;;;1.42;;
40815;SDS011;26535;48.788;9.214;2023-12-14T12:56:06;3.33;;;1.27;;
40815;SDS011;26535;48.788;9.214;2023-12-14T13:01:01;3.40;;;1.50;;
40815;SDS011;26535;48.788;9.214;2023-12-14T13:03:27;5.03;;;1.45;;
40815;SDS011;26535;48.788;9.214;2023-12-14T13:05:58;5.47;;;1.73;;
40815;SDS011;26535;48.788;9.214;2023-12-14T13:08:32;4.75;;;2.03;;
40815;SDS011;26535;48.788;9.214;2023-12-14T13:10:58;5.47;;;2.00;;
40815;SDS011;26535;48.788;9.214;2023-12-14T13:13:25;6.65;;;1.83;;
40815;SDS011;26535;48.788;9.214;2023-12-14T13:15:56;4.47;;;2.10;;
40815;SDS011;26535;48.788;9.214;2023-12-14T13:18:22;3.22;;;1.73;;
40815;SDS011;26535;48.788;9.214;2023-12-14T13:20:47;3.70;;;1.60;;
40815;SDS011;26535;48.788;9.214;2023-12-14T13:23:13;4.70;;;1.95;;
40815;SDS011;26535;48.788;9.214;2023-12-14T13:25:39;5.50;;;1.98;;
40815;SDS011;26535;48.788;9.214;2023-12-14T13:28:04;4.55;;;2.00;;
40815;SDS011;26535;48.788;9.214;2023-12-14T13:30:30;3.97;;;2.00;;
40815;SDS011;26535;48.788;9.214;2023-12-14T13:32:56;3.45;;;1.73;;
40815;SDS011;26535;48.788;9.214;2023-12-14T13:35:22;3.83;;;1.55;;
40815;SDS011;26535;48.788;9.214;2023-12-14T13:37:49;3.83;;;1.70;;
40815;SDS011;26535;48.788;9.214;2023-12-14T13:40:15;4.53;;;1.92;;
40815;SDS011;26535;48.788;9.214;2023-12-14T13:42:41;3.83;;;1.67;;
40815;SDS011;26535;48.788;9.214;2023-12-14T13:45:07;5.07;;;2.20;;
40815;SDS011;26535;48.788;9.214;2023-12-14T13:47:34;3.58;;;1.90;;
40815;SDS011;26535;48.788;9.214;2023-12-14T13:49:59;5.22;;;2.13;;
40815;SDS011;26535;48.788;9.214;2023-12-14T13:52:25;5.22;;;2.30;;
40815;SDS011;26535;48.788;9.214;2023-12-14T13:54:51;5.82;;;2.40;;
40815;SDS011;26535;48.788;9.214;2023-12-14T13:57:17;6.40;;;2.42;;
40815;SDS011;26535;48.788;9.214;2023-12-14T13:59:42;5.65;;;2.58;;
40815;SDS011;26535;48.788;9.214;2023-12-14T14:02:08;6.60;;;2.55;;
40815;SDS011;26535;48.788;9.214;2023-12-14T14:04:36;7.15;;;2.25;;
40815;SDS011;26535;48.788;9.214;2023-12-14T14:07:02;6.55;;;2.67;;
40815;SDS011;26535;48.788;9.214;2023-12-14T14:09:28;6.85;;;2.90;;
40815;SDS011;26535;48.788;9.214;2023-12-14T14:11:54;5.60;;;2.88;;
40815;SDS011;26535;48.788;9.214;2023-12-14T14:14:19;6.28;;;3.65;;
40815;SDS011;26535;48.788;9.214;2023-12-14T14:16:48;7.15;;;4.10;;
40815;SDS011;26535;48.788;9.214;2023-12-14T14:19:14;5.30;;;3.65;;
40815;SDS011;26535;48.788;9.214;2023-12-14T14:21:40;10.25;;;4.80;;
40815;SDS011;26535;48.788;9.214;2023-12-14T14:24:06;9.25;;;4.75;;
40815;SDS011;26535;48.788;9.214;2023-12-14T14:26:32;7.85;;;4.43;;
40815;SDS011;26535;48.788;9.214;2023-12-14T14:29:13;7.78;;;4.85;;
40815;SDS011;26535;48.788;9.214;2023-12-14T14:31:39;8.90;;;4.80;;
40815;SDS011;26535;48.788;9.214;2023-12-14T14:34:05;8.57;;;5.10;;
40815;SDS011;26535;48.788;9.214;2023-12-14T14:36:31;11.13;;;5.70;;
40815;SDS011;26535;48.788;9.214;2023-12-14T14:38:56;10.85;;;6.18;;
40815;SDS011;26535;48.788;9.214;2023-12-14T14:41:23;10.00;;;5.85;;
40815;SDS011;26535;48.788;9.214;2023-12-14T14:43:49;10.60;;;6.10;;
40815;SDS011;26535;48.788;9.214;2023-12-14T14:46:14;12.43;;;6.47;;
40815;SDS011;26535;48.788;9.214;2023-12-14T14:48:40;10.13;;;6.30;;
40815;SDS011;26535;48.788;9.214;2023-12-14T14:51:07;11.68;;;6.28;;
40815;SDS011;26535;48.788;9.214;2023-12-14T14:53:32;10.77;;;6.30;;
40815;SDS011;26535;48.788;9.214;2023-12-14T14:55:58;12.05;;;7.10;;
40815;SDS011;26535;48.788;9.214;2023-12-14T14:58:24;11.75;;;7.13;;
40815;SDS011;26535;48.788;9.214;2023-12-14T15:00:49;12.80;;;6.85;;